Terminal Aerodrome Forecast
Issued by NWS Sioux Falls, SD

Home | Current Version | Previous Version | Graphics & Text | Print | Product List | Glossary On
Versions: 1 2 3 4 5 6 7 8 9 10 11 12 13 14 15 16 17 18 19 20 21 22 23 24 25 26 27 28 29 30 31 32 33 34 35 36
000
FTUS43 KFSD 281720
TAFSUX
TAF
KSUX 281720Z 2818/2918 09008KT P6SM SCT030 BKN150
     FM290600 07006KT 5SM -RA OVC015
     FM291200 07010KT 4SM -RA OVC010=

USA.gov is the U.S. government's official web portal to all federal, state and local government web resources and services.